createdAt,value
2019-02-24T00:00:38.832Z,9.08
2019-02-24T00:03:29.568Z,8.70
2019-02-24T00:06:19.552Z,9.03
2019-02-24T00:09:09.345Z,8.50
2019-02-24T00:11:59.293Z,9.25
2019-02-24T00:14:48.996Z,8.88
2019-02-24T00:17:38.152Z,8.00
2019-02-24T00:20:28.663Z,8.80
2019-02-24T00:23:18.557Z,8.10
2019-02-24T00:26:08.302Z,8.03
2019-02-24T00:28:57.693Z,9.28
2019-02-24T00:31:47.565Z,7.78
2019-02-24T00:34:37.715Z,8.23
2019-02-24T00:37:27.661Z,7.53
2019-02-24T00:40:17.532Z,6.90
2019-02-24T00:43:07.474Z,6.90
2019-02-24T00:45:57.383Z,8.20
2019-02-24T00:48:46.730Z,8.03
2019-02-24T00:51:36.235Z,8.20
2019-02-24T00:54:25.715Z,7.65
2019-02-24T00:57:15.271Z,8.53
2019-02-24T01:00:05.551Z,7.62
2019-02-24T01:02:57.097Z,8.93
2019-02-24T01:05:46.313Z,8.00
2019-02-24T01:08:36.254Z,8.63
2019-02-24T01:11:25.831Z,8.10
2019-02-24T01:14:15.825Z,8.00
2019-02-24T01:17:08.744Z,8.23
2019-02-24T01:19:58.445Z,8.65
2019-02-24T01:22:48.026Z,7.90
2019-02-24T01:25:37.576Z,7.70
2019-02-24T01:28:27.167Z,7.50
2019-02-24T01:31:16.976Z,8.08
2019-02-24T01:34:06.835Z,7.60
2019-02-24T01:36:57.115Z,8.43
2019-02-24T01:39:47.187Z,8.85
2019-02-24T01:42:36.506Z,9.00
2019-02-24T01:45:26.145Z,8.00
2019-02-24T01:48:18.972Z,9.10
2019-02-24T01:51:08.713Z,7.85
2019-02-24T01:53:58.555Z,7.35
2019-02-24T01:56:48.322Z,7.72
2019-02-24T01:59:38.415Z,9.90
2019-02-24T02:02:28.466Z,8.63
2019-02-24T02:05:18.153Z,8.33
2019-02-24T02:08:08.068Z,9.65
2019-02-24T02:10:57.730Z,9.38
2019-02-24T02:13:47.342Z,7.83
2019-02-24T02:16:37.230Z,8.55
2019-02-24T02:19:26.886Z,8.53
2019-02-24T02:22:16.846Z,8.75
2019-02-24T02:25:06.643Z,7.87
2019-02-24T02:27:56.526Z,9.03
2019-02-24T02:30:46.116Z,9.35
2019-02-24T02:33:35.385Z,7.10
2019-02-24T02:36:25.466Z,7.50
2019-02-24T02:39:15.135Z,9.48
2019-02-24T02:42:04.795Z,9.18
2019-02-24T02:44:54.689Z,9.60
2019-02-24T02:47:43.984Z,8.55
2019-02-24T02:50:33.796Z,9.40
2019-02-24T02:53:23.697Z,8.08
2019-02-24T02:56:13.787Z,9.53
2019-02-24T02:59:03.752Z,8.18
2019-02-24T03:01:53.665Z,9.25
2019-02-24T03:04:43.545Z,10.68
2019-02-24T03:07:43.775Z,8.63
2019-02-24T03:10:33.465Z,9.13
2019-02-24T03:13:22.792Z,11.12
2019-02-24T03:16:12.590Z,8.50
2019-02-24T03:19:02.388Z,9.83
2019-02-24T03:21:52.571Z,10.15
2019-02-24T03:24:42.550Z,10.60
2019-02-24T03:27:32.147Z,10.50
2019-02-24T03:30:22.207Z,9.80
2019-02-24T03:33:11.715Z,10.32
2019-02-24T03:36:01.453Z,10.53
2019-02-24T03:38:51.574Z,8.48
2019-02-24T03:41:41.394Z,10.28
2019-02-24T03:44:31.202Z,10.85
2019-02-24T03:47:21.172Z,8.78
2019-02-24T03:50:10.662Z,9.88
2019-02-24T03:53:00.431Z,11.15
2019-02-24T03:55:50.145Z,9.98
2019-02-24T03:58:40.125Z,10.80
2019-02-24T04:01:29.502Z,10.70
2019-02-24T04:04:19.462Z,10.65
2019-02-24T04:07:09.551Z,9.05
2019-02-24T04:09:59.392Z,11.75
2019-02-24T04:12:49.212Z,10.78
2019-02-24T04:15:38.874Z,10.98
2019-02-24T04:18:28.762Z,9.78
2019-02-24T04:21:18.567Z,11.20
2019-02-24T04:24:08.565Z,10.23
2019-02-24T04:26:58.635Z,10.72
2019-02-24T04:29:48.536Z,10.75
2019-02-24T04:32:38.107Z,10.90
2019-02-24T04:35:28.162Z,11.20
2019-02-24T04:38:18.149Z,11.73
2019-02-24T04:41:07.822Z,10.10
2019-02-24T04:43:57.892Z,11.18
2019-02-24T04:46:47.392Z,10.68
2019-02-24T04:49:36.725Z,11.00
2019-02-24T04:52:26.352Z,11.33
2019-02-24T04:55:16.316Z,11.10
2019-02-24T04:58:05.812Z,11.90
2019-02-24T05:00:55.854Z,11.15
2019-02-24T05:03:45.863Z,11.48
2019-02-24T05:06:35.515Z,11.63
2019-02-24T05:09:25.195Z,11.97
2019-02-24T05:12:14.693Z,12.70
2019-02-24T05:15:04.259Z,11.85
2019-02-24T05:17:54.165Z,11.93
2019-02-24T05:20:43.836Z,11.15
2019-02-24T05:23:34.002Z,10.68
2019-02-24T05:26:23.154Z,12.10
2019-02-24T05:29:13.284Z,11.20
2019-02-24T05:32:03.385Z,12.55
2019-02-24T05:34:52.815Z,12.05
2019-02-24T05:37:42.492Z,12.63
2019-02-24T05:40:32.276Z,11.15
2019-02-24T05:43:21.914Z,12.58
2019-02-24T05:46:11.414Z,12.58
2019-02-24T05:49:01.326Z,11.53
2019-02-24T05:51:50.801Z,11.83
2019-02-24T05:54:40.472Z,12.13
2019-02-24T05:57:30.703Z,12.40
2019-02-24T06:00:20.135Z,12.95
2019-02-24T06:03:10.171Z,12.28
2019-02-24T06:06:00.208Z,11.12
2019-02-24T06:08:49.813Z,13.18
2019-02-24T06:11:39.732Z,10.95
2019-02-24T06:14:29.113Z,13.00
2019-02-24T06:17:18.975Z,13.75
2019-02-24T06:20:09.003Z,11.60
2019-02-24T06:22:58.382Z,13.53
2019-02-24T06:25:48.433Z,12.85
2019-02-24T06:28:38.003Z,13.25
2019-02-24T06:31:27.859Z,13.30
2019-02-24T06:34:17.572Z,11.78
2019-02-24T06:37:07.066Z,12.18
2019-02-24T06:39:56.816Z,15.00
2019-02-24T06:42:46.405Z,11.53
2019-02-24T06:45:36.087Z,12.78
2019-02-24T06:48:25.946Z,12.65
2019-02-24T06:51:16.992Z,14.00
2019-02-24T06:54:06.745Z,11.57
2019-02-24T06:56:56.213Z,12.37
2019-02-24T06:59:46.107Z,14.23
2019-02-24T07:02:35.604Z,12.88
2019-02-24T07:05:25.470Z,12.30
2019-02-24T07:08:15.327Z,11.48
2019-02-24T07:11:05.197Z,12.75
2019-02-24T07:13:55.001Z,13.60
2019-02-24T07:16:44.975Z,13.85
2019-02-24T07:19:35.268Z,13.05
2019-02-24T07:22:25.336Z,14.70
2019-02-24T07:25:15.253Z,14.10
2019-02-24T07:28:05.025Z,13.32
2019-02-24T07:30:54.995Z,14.15
2019-02-24T07:33:47.500Z,14.98
2019-02-24T07:36:37.472Z,16.52
2019-02-24T07:39:28.017Z,13.90
2019-02-24T07:42:17.526Z,14.33
2019-02-24T07:45:07.791Z,13.72
2019-02-24T07:47:57.500Z,15.90
2019-02-24T07:50:47.067Z,13.78
2019-02-24T07:53:37.015Z,14.93
2019-02-24T07:56:26.592Z,14.43
2019-02-24T07:59:16.272Z,14.43
2019-02-24T08:02:06.395Z,14.10
2019-02-24T08:04:55.901Z,15.32
2019-02-24T08:07:45.816Z,14.15
2019-02-24T08:10:35.473Z,16.02
2019-02-24T08:13:25.383Z,14.75
2019-02-24T08:16:16.388Z,13.62
2019-02-24T08:19:06.185Z,13.58
2019-02-24T08:21:55.646Z,12.70
2019-02-24T08:24:45.737Z,13.43
2019-02-24T08:27:35.217Z,15.75
2019-02-24T08:30:25.101Z,14.50
2019-02-24T08:33:15.154Z,13.68
2019-02-24T08:36:05.186Z,14.38
2019-02-24T08:38:54.716Z,13.80
2019-02-24T08:41:44.535Z,13.05
2019-02-24T08:44:34.507Z,15.43
2019-02-24T08:47:24.061Z,15.65
2019-02-24T08:50:13.732Z,14.65
2019-02-24T08:53:03.546Z,13.45
2019-02-24T08:55:53.114Z,13.75
2019-02-24T08:58:42.851Z,13.15
2019-02-24T09:01:32.876Z,15.32
2019-02-24T09:04:22.514Z,14.10
2019-02-24T09:07:12.246Z,14.43
2019-02-24T09:10:02.183Z,14.75
2019-02-24T09:12:52.892Z,14.00
2019-02-24T09:15:42.460Z,13.65
2019-02-24T09:18:32.363Z,14.05
2019-02-24T09:21:22.471Z,13.25
2019-02-24T09:24:12.193Z,14.50
2019-02-24T09:27:01.347Z,14.03
2019-02-24T09:29:52.069Z,15.83
2019-02-24T09:32:41.639Z,14.55
2019-02-24T09:35:31.438Z,13.43
2019-02-24T09:38:21.132Z,14.20
2019-02-24T09:41:11.084Z,13.68
2019-02-24T09:44:00.788Z,13.28
2019-02-24T09:46:51.052Z,14.95
2019-02-24T09:49:40.766Z,14.78
2019-02-24T09:52:30.945Z,15.23
2019-02-24T09:55:21.932Z,16.23
2019-02-24T09:58:11.432Z,15.15
2019-02-24T10:01:09.956Z,14.63
2019-02-24T10:03:55.701Z,15.23
2019-02-24T10:06:45.165Z,15.10
2019-02-24T10:09:34.818Z,15.20
2019-02-24T10:12:24.534Z,13.25
2019-02-24T10:15:14.252Z,16.10
2019-02-24T10:18:04.074Z,14.65
2019-02-24T10:20:53.632Z,14.55
2019-02-24T10:23:43.621Z,15.35
2019-02-24T10:26:32.992Z,15.93
2019-02-24T10:29:22.577Z,15.25
2019-02-24T10:32:12.323Z,14.87
2019-02-24T10:35:01.616Z,13.00
2019-02-24T10:37:51.526Z,14.78
2019-02-24T10:40:41.457Z,14.40
2019-02-24T10:43:31.163Z,14.47
2019-02-24T10:46:21.140Z,16.42
2019-02-24T10:49:10.635Z,16.30
2019-02-24T10:52:00.417Z,14.93
2019-02-24T10:54:50.117Z,14.87
2019-02-24T10:57:39.875Z,14.20
2019-02-24T11:00:35.272Z,13.85
2019-02-24T11:03:24.946Z,16.05
2019-02-24T11:06:14.847Z,16.82
2019-02-24T11:09:08.058Z,16.70
2019-02-24T11:11:57.864Z,14.28
2019-02-24T11:14:47.944Z,15.00
2019-02-24T11:17:37.538Z,14.18
2019-02-24T11:20:27.427Z,12.50
2019-02-24T11:23:16.742Z,14.13
2019-02-24T11:26:06.465Z,14.75
2019-02-24T11:28:56.468Z,14.58
2019-02-24T11:31:46.125Z,15.90
2019-02-24T11:34:36.321Z,15.65
2019-02-24T11:37:26.063Z,13.95
2019-02-24T11:40:15.684Z,14.83
2019-02-24T11:43:05.547Z,14.23
2019-02-24T11:45:55.866Z,13.00
2019-02-24T11:48:45.705Z,15.20
2019-02-24T11:51:35.302Z,15.13
2019-02-24T11:54:24.532Z,15.85
2019-02-24T11:57:14.264Z,15.83
2019-02-24T12:00:04.006Z,17.62
2019-02-24T12:02:54.038Z,17.05
2019-02-24T12:05:43.571Z,17.90
2019-02-24T12:08:33.254Z,17.30
2019-02-24T12:11:23.048Z,17.48
2019-02-24T12:14:13.043Z,15.08
2019-02-24T12:17:02.803Z,14.20
2019-02-24T12:19:52.572Z,14.85
2019-02-24T12:22:41.907Z,13.35
2019-02-24T12:25:31.713Z,14.00
2019-02-24T12:28:21.486Z,14.40
2019-02-24T12:31:11.153Z,16.67
2019-02-24T12:34:00.856Z,15.98
2019-02-24T12:36:50.651Z,16.37
2019-02-24T12:39:41.537Z,15.53
2019-02-24T12:42:31.331Z,16.37
2019-02-24T12:45:21.284Z,14.15
2019-02-24T12:48:11.123Z,16.35
2019-02-24T12:51:00.862Z,16.45
2019-02-24T12:53:50.461Z,14.50
2019-02-24T12:56:40.105Z,15.23
2019-02-24T12:59:30.226Z,14.53
2019-02-24T13:02:19.963Z,14.13
2019-02-24T13:05:09.856Z,17.57
2019-02-24T13:08:00.256Z,15.30
2019-02-24T13:10:49.823Z,16.93
2019-02-24T13:13:39.581Z,16.17
2019-02-24T13:16:29.591Z,17.35
2019-02-24T13:19:19.452Z,17.32
2019-02-24T13:22:08.954Z,18.03
2019-02-24T13:24:59.132Z,17.80
2019-02-24T13:27:49.248Z,17.17
2019-02-24T13:30:39.724Z,17.23
2019-02-24T13:33:29.604Z,17.60
2019-02-24T13:36:19.382Z,18.07
2019-02-24T13:39:09.163Z,19.57
2019-02-24T13:41:58.826Z,18.55
2019-02-24T13:44:47.930Z,16.67
2019-02-24T13:47:37.672Z,17.05
2019-02-24T13:50:27.173Z,16.60
2019-02-24T13:53:16.743Z,17.67
2019-02-24T13:56:06.749Z,18.37
2019-02-24T13:58:56.395Z,15.95
2019-02-24T14:01:46.372Z,17.23
2019-02-24T14:04:35.635Z,16.93
2019-02-24T14:07:25.632Z,18.57
2019-02-24T14:10:15.374Z,17.05
2019-02-24T14:13:04.834Z,16.35
2019-02-24T14:15:54.744Z,17.32
2019-02-24T14:18:44.455Z,17.82
2019-02-24T14:21:33.890Z,16.25
2019-02-24T14:24:23.702Z,16.37
2019-02-24T14:27:14.628Z,16.65
2019-02-24T14:30:05.305Z,16.62
2019-02-24T14:32:54.575Z,17.52
2019-02-24T14:35:44.314Z,16.82
2019-02-24T14:38:34.034Z,16.62
2019-02-24T14:41:23.945Z,17.35
2019-02-24T14:44:13.545Z,15.95
2019-02-24T14:47:04.605Z,16.52
2019-02-24T14:49:55.479Z,16.95
2019-02-24T14:52:45.393Z,16.40
2019-02-24T14:55:35.542Z,15.58
2019-02-24T14:58:25.075Z,17.35
2019-02-24T15:01:14.705Z,16.85
2019-02-24T15:04:04.194Z,17.85
2019-02-24T15:06:54.154Z,18.25
2019-02-24T15:09:44.085Z,16.27
2019-02-24T15:12:33.813Z,16.73
2019-02-24T15:15:32.442Z,16.48
2019-02-24T15:18:15.574Z,14.70
2019-02-24T15:21:05.325Z,15.40
2019-02-24T15:23:55.444Z,14.90
2019-02-24T15:26:45.185Z,15.80
2019-02-24T15:29:35.847Z,17.07
2019-02-24T15:32:25.888Z,17.48
2019-02-24T15:35:15.645Z,18.82
2019-02-24T15:38:05.625Z,18.32
2019-02-24T15:40:55.522Z,17.80
2019-02-24T15:43:45.201Z,19.70
2019-02-24T15:46:35.596Z,17.70
2019-02-24T15:49:25.169Z,19.70
2019-02-24T15:52:14.856Z,18.85
2019-02-24T15:55:04.413Z,18.55
2019-02-24T15:57:54.444Z,20.12
2019-02-24T16:00:43.992Z,19.77
2019-02-24T16:03:33.942Z,20.02
2019-02-24T16:06:23.940Z,18.07
2019-02-24T16:09:13.826Z,18.25
2019-02-24T16:12:03.992Z,19.05
2019-02-24T16:14:53.793Z,19.17
2019-02-24T16:17:43.351Z,18.73
2019-02-24T16:20:33.162Z,17.42
2019-02-24T16:23:23.228Z,17.52
2019-02-24T16:26:13.081Z,18.50
2019-02-24T16:29:02.491Z,18.10
2019-02-24T16:31:52.162Z,18.00
2019-02-24T16:34:42.078Z,16.77
2019-02-24T16:37:31.915Z,18.12
2019-02-24T16:40:21.903Z,17.70
2019-02-24T16:43:11.484Z,18.10
2019-02-24T16:46:01.477Z,16.75
2019-02-24T16:48:51.532Z,17.07
2019-02-24T16:51:41.638Z,18.42
2019-02-24T16:54:31.396Z,17.60
2019-02-24T16:57:20.792Z,18.40
2019-02-24T17:00:16.036Z,17.70
2019-02-24T17:03:05.892Z,16.77
2019-02-24T17:06:01.804Z,16.55
2019-02-24T17:08:52.002Z,17.48
2019-02-24T17:11:42.537Z,17.42
2019-02-24T17:14:32.161Z,16.10
2019-02-24T17:17:21.712Z,16.75
2019-02-24T17:20:13.073Z,16.55
2019-02-24T17:23:02.830Z,16.57
2019-02-24T17:25:53.147Z,18.50
2019-02-24T17:28:43.007Z,19.55
2019-02-24T17:31:32.693Z,17.48
2019-02-24T17:34:23.382Z,20.20
2019-02-24T17:37:19.846Z,18.90
2019-02-24T17:40:03.807Z,18.35
2019-02-24T17:42:53.570Z,18.80
2019-02-24T17:45:44.875Z,17.65
2019-02-24T17:48:34.848Z,17.80
2019-02-24T17:51:24.625Z,18.55
2019-02-24T17:54:14.515Z,17.40
2019-02-24T17:57:06.186Z,18.60
2019-02-24T17:59:55.835Z,16.62
2019-02-24T18:02:45.514Z,19.27
2019-02-24T18:05:35.407Z,17.37
2019-02-24T18:08:28.174Z,16.62
2019-02-24T18:11:16.606Z,19.80
2019-02-24T18:14:06.342Z,19.00
2019-02-24T18:16:56.965Z,18.10
2019-02-24T18:19:47.032Z,18.27
2019-02-24T18:22:37.082Z,18.42
2019-02-24T18:25:26.511Z,16.73
2019-02-24T18:28:19.136Z,18.23
2019-02-24T18:31:08.891Z,16.55
2019-02-24T18:33:58.877Z,18.55
2019-02-24T18:36:48.943Z,17.82
2019-02-24T18:39:38.695Z,19.87
2019-02-24T18:42:29.675Z,19.42
2019-02-24T18:45:19.794Z,18.23
2019-02-24T18:48:09.838Z,19.15
2019-02-24T18:50:59.647Z,19.23
2019-02-24T18:53:49.263Z,18.98
2019-02-24T18:56:39.385Z,19.23
2019-02-24T18:59:29.056Z,19.10
2019-02-24T19:02:18.942Z,19.12
2019-02-24T19:05:09.029Z,19.92
2019-02-24T19:07:58.814Z,19.60
2019-02-24T19:10:48.692Z,19.25
2019-02-24T19:13:38.473Z,20.85
2019-02-24T19:16:27.935Z,21.75
2019-02-24T19:19:25.338Z,20.27
2019-02-24T19:22:08.833Z,20.68
2019-02-24T19:24:58.459Z,21.40
2019-02-24T19:27:48.067Z,21.62
2019-02-24T19:30:37.689Z,21.02
2019-02-24T19:33:27.660Z,22.15
2019-02-24T19:36:18.152Z,20.85
2019-02-24T19:39:09.577Z,20.97
2019-02-24T19:41:59.355Z,20.15
2019-02-24T19:44:49.325Z,19.82
2019-02-24T19:47:39.363Z,18.20
2019-02-24T19:50:29.290Z,17.15
2019-02-24T19:53:18.868Z,19.90
2019-02-24T19:56:08.103Z,18.80
2019-02-24T19:58:57.919Z,18.17
2019-02-24T20:01:47.363Z,17.98
2019-02-24T20:04:36.846Z,19.42
2019-02-24T20:07:26.623Z,20.15
2019-02-24T20:10:18.180Z,19.73
2019-02-24T20:13:07.912Z,22.17
2019-02-24T20:15:57.372Z,21.73
2019-02-24T20:18:48.232Z,20.80
2019-02-24T20:21:40.672Z,20.80
2019-02-24T20:24:33.118Z,23.73
2019-02-24T20:27:21.746Z,22.27
2019-02-24T20:30:14.529Z,21.95
2019-02-24T20:33:04.906Z,22.45
2019-02-24T20:35:54.845Z,23.20
2019-02-24T20:38:44.247Z,21.02
2019-02-24T20:41:33.932Z,23.20
2019-02-24T20:44:23.605Z,21.45
2019-02-24T20:47:13.292Z,20.75
2019-02-24T20:50:03.475Z,21.48
2019-02-24T20:52:53.128Z,22.37
2019-02-24T20:55:45.872Z,23.35
2019-02-24T20:58:35.954Z,20.35
2019-02-24T21:01:25.823Z,21.17
2019-02-24T21:04:15.237Z,21.37
2019-02-24T21:07:04.702Z,19.67
2019-02-24T21:09:54.599Z,20.75
2019-02-24T21:12:44.348Z,19.30
2019-02-24T21:15:34.176Z,20.35
2019-02-24T21:18:24.322Z,21.90
2019-02-24T21:21:13.912Z,21.33
2019-02-24T21:24:03.477Z,20.97
2019-02-24T21:26:53.473Z,20.37
2019-02-24T21:29:43.334Z,21.50
2019-02-24T21:32:33.034Z,21.10
2019-02-24T21:35:23.104Z,21.75
2019-02-24T21:38:12.824Z,20.35
2019-02-24T21:41:02.866Z,21.60
2019-02-24T21:43:52.362Z,23.20
2019-02-24T21:46:42.134Z,21.82
2019-02-24T21:49:32.222Z,21.00
2019-02-24T21:52:21.973Z,21.23
2019-02-24T21:55:11.780Z,24.50
2019-02-24T21:58:01.441Z,23.95
2019-02-24T22:00:51.402Z,21.95
2019-02-24T22:03:41.328Z,23.32
2019-02-24T22:06:31.047Z,20.55
2019-02-24T22:09:20.876Z,24.00
2019-02-24T22:12:10.762Z,22.87
2019-02-24T22:15:00.742Z,22.35
2019-02-24T22:17:50.333Z,23.77
2019-02-24T22:20:40.223Z,23.42
2019-02-24T22:23:30.176Z,19.35
2019-02-24T22:26:21.177Z,21.25
2019-02-24T22:29:11.091Z,21.42
2019-02-24T22:32:00.472Z,22.80
2019-02-24T22:34:50.231Z,21.17
2019-02-24T22:37:40.123Z,21.45
2019-02-24T22:40:29.892Z,22.05
2019-02-24T22:43:19.767Z,22.37
2019-02-24T22:46:09.666Z,21.93
2019-02-24T22:48:59.686Z,21.33
2019-02-24T22:51:49.836Z,21.27
2019-02-24T22:54:39.512Z,21.52
2019-02-24T22:57:29.372Z,22.10
2019-02-24T23:00:32.645Z,22.35
2019-02-24T23:03:24.192Z,23.70
2019-02-24T23:06:13.652Z,22.25
2019-02-24T23:09:06.162Z,23.30
2019-02-24T23:11:57.235Z,21.48
2019-02-24T23:14:47.252Z,22.05
2019-02-24T23:17:37.081Z,24.07
2019-02-24T23:20:26.923Z,21.68
2019-02-24T23:23:16.832Z,21.05
2019-02-24T23:26:06.233Z,20.97
2019-02-24T23:28:55.825Z,21.75
2019-02-24T23:31:45.392Z,21.97
2019-02-24T23:34:35.152Z,21.37
2019-02-24T23:37:24.793Z,22.22
2019-02-24T23:40:14.796Z,23.35
2019-02-24T23:43:04.545Z,21.48
2019-02-24T23:45:54.465Z,24.32
2019-02-24T23:48:43.953Z,21.93
2019-02-24T23:51:33.725Z,21.82
2019-02-24T23:54:23.935Z,24.23
2019-02-24T23:57:13.595Z,21.62
